sensor_id;sensor_type;location;lat;lon;timestamp;temperature;humidity
38684;DHT22;24910;53.248;-6.134;2023-05-07T00:01:16;14.30;90.40
38684;DHT22;24910;53.248;-6.134;2023-05-07T00:03:48;14.40;90.50
38684;DHT22;24910;53.248;-6.134;2023-05-07T00:06:17;14.30;90.40
38684;DHT22;24910;53.248;-6.134;2023-05-07T00:08:47;14.40;90.40
38684;DHT22;24910;53.248;-6.134;2023-05-07T00:11:16;14.30;90.40
38684;DHT22;24910;53.248;-6.134;2023-05-07T00:13:45;14.30;90.30
38684;DHT22;24910;53.248;-6.134;2023-05-07T00:16:14;14.30;90.30
38684;DHT22;24910;53.248;-6.134;2023-05-07T00:18:43;14.30;90.30
38684;DHT22;24910;53.248;-6.134;2023-05-07T00:21:14;14.30;90.20
38684;DHT22;24910;53.248;-6.134;2023-05-07T00:23:43;14.30;90.20
38684;DHT22;24910;53.248;-6.134;2023-05-07T00:26:12;14.30;90.20
38684;DHT22;24910;53.248;-6.134;2023-05-07T00:28:46;14.20;90.20
38684;DHT22;24910;53.248;-6.134;2023-05-07T00:31:15;14.20;90.20
38684;DHT22;24910;53.248;-6.134;2023-05-07T00:33:44;14.20;90.10
38684;DHT22;24910;53.248;-6.134;2023-05-07T00:36:15;14.20;90.10
38684;DHT22;24910;53.248;-6.134;2023-05-07T00:38:44;14.10;90.00
38684;DHT22;24910;53.248;-6.134;2023-05-07T00:41:13;14.10;90.00
38684;DHT22;24910;53.248;-6.134;2023-05-07T00:43:42;14.10;90.00
38684;DHT22;24910;53.248;-6.134;2023-05-07T00:46:11;14.10;90.00
38684;DHT22;24910;53.248;-6.134;2023-05-07T00:48:42;14.10;90.00
38684;DHT22;24910;53.248;-6.134;2023-05-07T00:51:11;14.10;90.00
38684;DHT22;24910;53.248;-6.134;2023-05-07T00:53:42;14.10;89.90
38684;DHT22;24910;53.248;-6.134;2023-05-07T00:56:12;14.10;89.90
38684;DHT22;24910;53.248;-6.134;2023-05-07T00:58:41;14.10;90.00
38684;DHT22;24910;53.248;-6.134;2023-05-07T01:01:10;14.10;90.00
38684;DHT22;24910;53.248;-6.134;2023-05-07T01:03:39;14.10;90.00
38684;DHT22;24910;53.248;-6.134;2023-05-07T01:06:10;14.10;90.10
38684;DHT22;24910;53.248;-6.134;2023-05-07T01:08:46;14.10;90.20
38684;DHT22;24910;53.248;-6.134;2023-05-07T01:11:16;14.10;90.30
38684;DHT22;24910;53.248;-6.134;2023-05-07T01:13:47;14.10;90.30
38684;DHT22;24910;53.248;-6.134;2023-05-07T01:16:18;14.10;90.30
38684;DHT22;24910;53.248;-6.134;2023-05-07T01:18:48;14.00;90.40
38684;DHT22;24910;53.248;-6.134;2023-05-07T01:21:18;14.00;90.50
38684;DHT22;24910;53.248;-6.134;2023-05-07T01:23:52;14.00;90.50
38684;DHT22;24910;53.248;-6.134;2023-05-07T01:26:23;14.00;91.00
38684;DHT22;24910;53.248;-6.134;2023-05-07T01:28:52;14.00;90.60
38684;DHT22;24910;53.248;-6.134;2023-05-07T01:31:21;14.00;90.70
38684;DHT22;24910;53.248;-6.134;2023-05-07T01:33:52;14.00;90.80
38684;DHT22;24910;53.248;-6.134;2023-05-07T01:36:22;14.00;90.90
38684;DHT22;24910;53.248;-6.134;2023-05-07T01:38:55;14.00;90.80
38684;DHT22;24910;53.248;-6.134;2023-05-07T01:41:25;14.00;90.80
38684;DHT22;24910;53.248;-6.134;2023-05-07T01:43:55;13.90;90.90
38684;DHT22;24910;53.248;-6.134;2023-05-07T01:46:26;14.00;90.90
38684;DHT22;24910;53.248;-6.134;2023-05-07T01:48:55;14.00;90.90
38684;DHT22;24910;53.248;-6.134;2023-05-07T01:51:24;14.00;90.90
38684;DHT22;24910;53.248;-6.134;2023-05-07T01:53:55;14.00;90.90
38684;DHT22;24910;53.248;-6.134;2023-05-07T01:56:24;14.00;90.90
38684;DHT22;24910;53.248;-6.134;2023-05-07T01:58:54;14.00;90.90
38684;DHT22;24910;53.248;-6.134;2023-05-07T02:01:24;14.00;90.90
38684;DHT22;24910;53.248;-6.134;2023-05-07T02:03:53;14.00;90.90
38684;DHT22;24910;53.248;-6.134;2023-05-07T02:06:26;14.00;90.90
38684;DHT22;24910;53.248;-6.134;2023-05-07T02:09:02;14.00;91.00
38684;DHT22;24910;53.248;-6.134;2023-05-07T02:11:31;14.00;90.90
38684;DHT22;24910;53.248;-6.134;2023-05-07T02:14:00;14.00;91.00
38684;DHT22;24910;53.248;-6.134;2023-05-07T02:16:29;14.00;90.90
38684;DHT22;24910;53.248;-6.134;2023-05-07T02:18:58;14.00;91.00
38684;DHT22;24910;53.248;-6.134;2023-05-07T02:21:27;14.00;90.90
38684;DHT22;24910;53.248;-6.134;2023-05-07T02:23:57;14.00;91.00
38684;DHT22;24910;53.248;-6.134;2023-05-07T02:26:28;14.00;91.00
38684;DHT22;24910;53.248;-6.134;2023-05-07T02:28:57;14.00;91.00
38684;DHT22;24910;53.248;-6.134;2023-05-07T02:31:26;14.00;91.00
38684;DHT22;24910;53.248;-6.134;2023-05-07T02:33:55;14.00;91.00
38684;DHT22;24910;53.248;-6.134;2023-05-07T02:36:24;14.00;91.10
38684;DHT22;24910;53.248;-6.134;2023-05-07T02:39:00;14.00;91.10
38684;DHT22;24910;53.248;-6.134;2023-05-07T02:41:31;14.00;91.10
38684;DHT22;24910;53.248;-6.134;2023-05-07T02:44:00;14.00;91.10
38684;DHT22;24910;53.248;-6.134;2023-05-07T02:46:30;14.10;91.20
38684;DHT22;24910;53.248;-6.134;2023-05-07T02:49:07;14.10;91.20
38684;DHT22;24910;53.248;-6.134;2023-05-07T02:51:36;14.10;91.20
38684;DHT22;24910;53.248;-6.134;2023-05-07T02:54:11;14.10;91.20
38684;DHT22;24910;53.248;-6.134;2023-05-07T02:56:41;14.10;91.30
38684;DHT22;24910;53.248;-6.134;2023-05-07T02:59:10;14.10;91.20
38684;DHT22;24910;53.248;-6.134;2023-05-07T03:01:41;14.10;91.20
38684;DHT22;24910;53.248;-6.134;2023-05-07T03:04:13;14.10;91.20
38684;DHT22;24910;53.248;-6.134;2023-05-07T03:06:43;14.10;91.10
38684;DHT22;24910;53.248;-6.134;2023-05-07T03:09:12;14.10;91.10
38684;DHT22;24910;53.248;-6.134;2023-05-07T03:11:42;14.00;91.00
38684;DHT22;24910;53.248;-6.134;2023-05-07T03:14:11;14.00;91.00
38684;DHT22;24910;53.248;-6.134;2023-05-07T03:16:41;14.00;90.90
38684;DHT22;24910;53.248;-6.134;2023-05-07T03:19:10;14.00;90.90
38684;DHT22;24910;53.248;-6.134;2023-05-07T03:21:39;14.00;90.90
38684;DHT22;24910;53.248;-6.134;2023-05-07T03:24:08;14.00;90.90
38684;DHT22;24910;53.248;-6.134;2023-05-07T03:26:37;14.00;90.90
38684;DHT22;24910;53.248;-6.134;2023-05-07T03:29:07;14.00;90.90
38684;DHT22;24910;53.248;-6.134;2023-05-07T03:31:37;13.90;90.80
38684;DHT22;24910;53.248;-6.134;2023-05-07T03:34:06;14.00;90.80
38684;DHT22;24910;53.248;-6.134;2023-05-07T03:36:35;13.90;90.80
38684;DHT22;24910;53.248;-6.134;2023-05-07T03:39:08;13.90;90.80
38684;DHT22;24910;53.248;-6.134;2023-05-07T03:41:40;13.90;90.80
38684;DHT22;24910;53.248;-6.134;2023-05-07T03:44:11;13.90;90.80
38684;DHT22;24910;53.248;-6.134;2023-05-07T03:46:40;13.80;90.70
38684;DHT22;24910;53.248;-6.134;2023-05-07T03:49:11;13.90;90.80
38684;DHT22;24910;53.248;-6.134;2023-05-07T03:51:40;13.80;90.60
38684;DHT22;24910;53.248;-6.134;2023-05-07T03:54:09;13.80;90.60
38684;DHT22;24910;53.248;-6.134;2023-05-07T03:56:43;13.80;90.60
38684;DHT22;24910;53.248;-6.134;2023-05-07T03:59:13;13.70;90.60
38684;DHT22;24910;53.248;-6.134;2023-05-07T04:01:45;13.80;90.50
38684;DHT22;24910;53.248;-6.134;2023-05-07T04:04:17;13.70;90.40
38684;DHT22;24910;53.248;-6.134;2023-05-07T04:06:46;13.70;90.40
38684;DHT22;24910;53.248;-6.134;2023-05-07T04:09:15;13.70;90.40
38684;DHT22;24910;53.248;-6.134;2023-05-07T04:11:46;13.60;90.70
38684;DHT22;24910;53.248;-6.134;2023-05-07T04:14:16;13.60;90.30
38684;DHT22;24910;53.248;-6.134;2023-05-07T04:16:47;13.50;90.30
38684;DHT22;24910;53.248;-6.134;2023-05-07T04:19:16;13.50;90.30
38684;DHT22;24910;53.248;-6.134;2023-05-07T04:21:49;13.50;90.20
38684;DHT22;24910;53.248;-6.134;2023-05-07T04:24:18;13.50;90.20
38684;DHT22;24910;53.248;-6.134;2023-05-07T04:26:48;13.50;90.20
38684;DHT22;24910;53.248;-6.134;2023-05-07T04:29:22;13.50;90.10
38684;DHT22;24910;53.248;-6.134;2023-05-07T04:31:52;13.40;90.00
38684;DHT22;24910;53.248;-6.134;2023-05-07T04:34:23;13.40;90.00
38684;DHT22;24910;53.248;-6.134;2023-05-07T04:36:53;13.40;90.00
38684;DHT22;24910;53.248;-6.134;2023-05-07T04:39:22;13.40;90.00
38684;DHT22;24910;53.248;-6.134;2023-05-07T04:41:51;13.40;90.10
38684;DHT22;24910;53.248;-6.134;2023-05-07T04:44:22;13.50;90.20
38684;DHT22;24910;53.248;-6.134;2023-05-07T04:46:51;13.50;90.30
38684;DHT22;24910;53.248;-6.134;2023-05-07T04:49:24;13.50;90.40
38684;DHT22;24910;53.248;-6.134;2023-05-07T04:51:54;13.50;90.40
38684;DHT22;24910;53.248;-6.134;2023-05-07T04:54:24;13.60;90.40
38684;DHT22;24910;53.248;-6.134;2023-05-07T04:56:53;13.60;90.40
38684;DHT22;24910;53.248;-6.134;2023-05-07T04:59:24;13.60;90.50
38684;DHT22;24910;53.248;-6.134;2023-05-07T05:01:53;13.50;90.50
38684;DHT22;24910;53.248;-6.134;2023-05-07T05:04:24;13.60;90.50
38684;DHT22;24910;53.248;-6.134;2023-05-07T05:06:53;13.60;90.60
38684;DHT22;24910;53.248;-6.134;2023-05-07T05:09:25;13.60;90.60
38684;DHT22;24910;53.248;-6.134;2023-05-07T05:11:54;13.60;90.70
38684;DHT22;24910;53.248;-6.134;2023-05-07T05:14:25;13.60;90.70
38684;DHT22;24910;53.248;-6.134;2023-05-07T05:16:54;13.60;90.80
38684;DHT22;24910;53.248;-6.134;2023-05-07T05:19:23;13.60;90.80
38684;DHT22;24910;53.248;-6.134;2023-05-07T05:21:53;13.70;90.90
38684;DHT22;24910;53.248;-6.134;2023-05-07T05:24:22;13.70;90.90
38684;DHT22;24910;53.248;-6.134;2023-05-07T05:26:53;13.70;91.00
38684;DHT22;24910;53.248;-6.134;2023-05-07T05:29:24;13.70;91.00
38684;DHT22;24910;53.248;-6.134;2023-05-07T05:31:53;13.70;91.10
38684;DHT22;24910;53.248;-6.134;2023-05-07T05:34:24;13.80;91.10
38684;DHT22;24910;53.248;-6.134;2023-05-07T05:36:53;13.80;91.10
38684;DHT22;24910;53.248;-6.134;2023-05-07T05:39:22;13.80;91.10
38684;DHT22;24910;53.248;-6.134;2023-05-07T05:41:51;13.80;91.20
38684;DHT22;24910;53.248;-6.134;2023-05-07T05:44:21;13.80;91.20
38684;DHT22;24910;53.248;-6.134;2023-05-07T05:46:51;13.80;91.30
38684;DHT22;24910;53.248;-6.134;2023-05-07T05:49:23;13.90;91.30
38684;DHT22;24910;53.248;-6.134;2023-05-07T05:51:52;13.90;91.30
38684;DHT22;24910;53.248;-6.134;2023-05-07T05:54:21;13.90;91.30
38684;DHT22;24910;53.248;-6.134;2023-05-07T05:56:50;14.00;91.30
38684;DHT22;24910;53.248;-6.134;2023-05-07T05:59:19;14.00;91.30
38684;DHT22;24910;53.248;-6.134;2023-05-07T06:01:48;14.00;91.30
38684;DHT22;24910;53.248;-6.134;2023-05-07T06:04:19;14.10;91.40
38684;DHT22;24910;53.248;-6.134;2023-05-07T06:06:48;14.20;91.40
38684;DHT22;24910;53.248;-6.134;2023-05-07T06:09:18;14.30;91.40
38684;DHT22;24910;53.248;-6.134;2023-05-07T06:11:47;14.30;91.40
38684;DHT22;24910;53.248;-6.134;2023-05-07T06:14:16;14.40;91.40
38684;DHT22;24910;53.248;-6.134;2023-05-07T06:16:45;14.50;91.40
38684;DHT22;24910;53.248;-6.134;2023-05-07T06:19:15;14.50;91.40
38684;DHT22;24910;53.248;-6.134;2023-05-07T06:21:47;14.60;91.40
38684;DHT22;24910;53.248;-6.134;2023-05-07T06:24:16;14.60;91.30
38684;DHT22;24910;53.248;-6.134;2023-05-07T06:26:45;14.60;91.30
38684;DHT22;24910;53.248;-6.134;2023-05-07T06:29:14;14.70;91.20
38684;DHT22;24910;53.248;-6.134;2023-05-07T06:31:44;14.70;91.20
38684;DHT22;24910;53.248;-6.134;2023-05-07T06:34:14;14.80;91.20
38684;DHT22;24910;53.248;-6.134;2023-05-07T06:36:43;14.90;91.10
38684;DHT22;24910;53.248;-6.134;2023-05-07T06:39:23;15.00;91.10
38684;DHT22;24910;53.248;-6.134;2023-05-07T06:41:52;15.10;91.00
38684;DHT22;24910;53.248;-6.134;2023-05-07T06:44:26;15.10;90.80
38684;DHT22;24910;53.248;-6.134;2023-05-07T06:47:07;15.10;90.70
38684;DHT22;24910;53.248;-6.134;2023-05-07T06:49:39;15.20;90.70
38684;DHT22;24910;53.248;-6.134;2023-05-07T06:52:08;15.20;90.60
38684;DHT22;24910;53.248;-6.134;2023-05-07T06:54:38;15.20;90.50
38684;DHT22;24910;53.248;-6.134;2023-05-07T06:57:08;15.30;90.50
38684;DHT22;24910;53.248;-6.134;2023-05-07T06:59:37;15.30;90.50
38684;DHT22;24910;53.248;-6.134;2023-05-07T07:02:06;15.40;90.50
38684;DHT22;24910;53.248;-6.134;2023-05-07T07:04:36;15.50;90.60
38684;DHT22;24910;53.248;-6.134;2023-05-07T07:07:09;15.60;90.50
38684;DHT22;24910;53.248;-6.134;2023-05-07T07:09:42;15.70;90.50
38684;DHT22;24910;53.248;-6.134;2023-05-07T07:12:12;15.90;90.50
38684;DHT22;24910;53.248;-6.134;2023-05-07T07:14:42;16.00;90.50
38684;DHT22;24910;53.248;-6.134;2023-05-07T07:17:14;16.10;90.50
38684;DHT22;24910;53.248;-6.134;2023-05-07T07:19:43;16.20;90.50
38684;DHT22;24910;53.248;-6.134;2023-05-07T07:22:12;16.30;90.40
38684;DHT22;24910;53.248;-6.134;2023-05-07T07:24:43;16.50;90.40
38684;DHT22;24910;53.248;-6.134;2023-05-07T07:27:16;16.50;90.20
38684;DHT22;24910;53.248;-6.134;2023-05-07T07:29:46;16.70;90.10
38684;DHT22;24910;53.248;-6.134;2023-05-07T07:32:15;16.80;90.00
38684;DHT22;24910;53.248;-6.134;2023-05-07T07:34:45;16.90;89.80
38684;DHT22;24910;53.248;-6.134;2023-05-07T07:37:14;17.00;89.60
38684;DHT22;24910;53.248;-6.134;2023-05-07T07:39:46;17.00;89.20
38684;DHT22;24910;53.248;-6.134;2023-05-07T07:42:16;17.10;88.90
38684;DHT22;24910;53.248;-6.134;2023-05-07T07:44:48;17.10;88.50
38684;DHT22;24910;53.248;-6.134;2023-05-07T07:47:20;17.20;88.40
38684;DHT22;24910;53.248;-6.134;2023-05-07T07:49:51;17.20;88.20
38684;DHT22;24910;53.248;-6.134;2023-05-07T07:52:20;17.20;88.00
38684;DHT22;24910;53.248;-6.134;2023-05-07T07:54:51;17.20;87.80
38684;DHT22;24910;53.248;-6.134;2023-05-07T07:57:21;17.10;87.60
38684;DHT22;24910;53.248;-6.134;2023-05-07T07:59:51;17.10;87.20
38684;DHT22;24910;53.248;-6.134;2023-05-07T08:02:22;17.10;86.80
38684;DHT22;24910;53.248;-6.134;2023-05-07T08:04:51;17.10;86.60
38684;DHT22;24910;53.248;-6.134;2023-05-07T08:07:21;17.10;86.60
38684;DHT22;24910;53.248;-6.134;2023-05-07T08:09:51;17.10;86.60
38684;DHT22;24910;53.248;-6.134;2023-05-07T08:12:24;17.10;86.20
38684;DHT22;24910;53.248;-6.134;2023-05-07T08:14:54;17.10;85.90
38684;DHT22;24910;53.248;-6.134;2023-05-07T08:17:24;17.00;85.90
38684;DHT22;24910;53.248;-6.134;2023-05-07T08:19:56;16.90;85.40
38684;DHT22;24910;53.248;-6.134;2023-05-07T08:22:26;16.70;85.50
38684;DHT22;24910;53.248;-6.134;2023-05-07T08:24:56;16.60;85.90
38684;DHT22;24910;53.248;-6.134;2023-05-07T08:27:25;16.50;86.00
38684;DHT22;24910;53.248;-6.134;2023-05-07T08:29:55;16.50;86.30
38684;DHT22;24910;53.248;-6.134;2023-05-07T08:32:25;16.40;86.60
38684;DHT22;24910;53.248;-6.134;2023-05-07T08:34:55;16.40;86.70
38684;DHT22;24910;53.248;-6.134;2023-05-07T08:37:24;16.50;86.90
38684;DHT22;24910;53.248;-6.134;2023-05-07T08:39:54;16.50;86.80
38684;DHT22;24910;53.248;-6.134;2023-05-07T08:42:28;16.60;86.60
38684;DHT22;24910;53.248;-6.134;2023-05-07T08:44:59;16.70;86.60
38684;DHT22;24910;53.248;-6.134;2023-05-07T08:47:31;16.90;86.40
38684;DHT22;24910;53.248;-6.134;2023-05-07T08:50:03;17.00;86.10
38684;DHT22;24910;53.248;-6.134;2023-05-07T08:52:34;17.10;85.70
38684;DHT22;24910;53.248;-6.134;2023-05-07T08:55:04;17.00;85.40
38684;DHT22;24910;53.248;-6.134;2023-05-07T08:57:35;17.10;85.40
38684;DHT22;24910;53.248;-6.134;2023-05-07T09:00:10;17.30;85.30
38684;DHT22;24910;53.248;-6.134;2023-05-07T09:02:40;17.60;85.10
38684;DHT22;24910;53.248;-6.134;2023-05-07T09:05:10;17.80;85.00
38684;DHT22;24910;53.248;-6.134;2023-05-07T09:07:40;18.10;84.80
38684;DHT22;24910;53.248;-6.134;2023-05-07T09:10:10;18.30;84.20
38684;DHT22;24910;53.248;-6.134;2023-05-07T09:12:42;18.40;83.30
38684;DHT22;24910;53.248;-6.134;2023-05-07T09:15:14;18.60;83.10
38684;DHT22;24910;53.248;-6.134;2023-05-07T09:17:46;18.70;83.50
38684;DHT22;24910;53.248;-6.134;2023-05-07T09:20:17;18.70;82.40
38684;DHT22;24910;53.248;-6.134;2023-05-07T09:22:46;18.70;82.10
38684;DHT22;24910;53.248;-6.134;2023-05-07T09:25:28;18.70;82.20
38684;DHT22;24910;53.248;-6.134;2023-05-07T09:28:01;18.90;82.10
38684;DHT22;24910;53.248;-6.134;2023-05-07T09:30:34;19.00;81.60
38684;DHT22;24910;53.248;-6.134;2023-05-07T09:33:09;19.00;80.70
38684;DHT22;24910;53.248;-6.134;2023-05-07T09:35:41;18.90;79.90
38684;DHT22;24910;53.248;-6.134;2023-05-07T09:38:17;18.80;79.50
38684;DHT22;24910;53.248;-6.134;2023-05-07T09:41:01;18.80;79.70
38684;DHT22;24910;53.248;-6.134;2023-05-07T09:43:35;18.90;80.00
38684;DHT22;24910;53.248;-6.134;2023-05-07T09:46:11;19.00;79.70
38684;DHT22;24910;53.248;-6.134;2023-05-07T09:48:46;19.10;79.10
38684;DHT22;24910;53.248;-6.134;2023-05-07T09:51:20;19.20;78.60
38684;DHT22;24910;53.248;-6.134;2023-05-07T09:53:52;19.40;78.80
38684;DHT22;24910;53.248;-6.134;2023-05-07T09:56:23;19.40;78.70
38684;DHT22;24910;53.248;-6.134;2023-05-07T09:58:57;19.50;78.20
38684;DHT22;24910;53.248;-6.134;2023-05-07T10:01:31;19.60;77.40
38684;DHT22;24910;53.248;-6.134;2023-05-07T10:04:02;19.60;77.00
38684;DHT22;24910;53.248;-6.134;2023-05-07T10:06:33;19.70;76.80
38684;DHT22;24910;53.248;-6.134;2023-05-07T10:09:02;19.90;76.40
38684;DHT22;24910;53.248;-6.134;2023-05-07T10:11:33;19.90;75.60
38684;DHT22;24910;53.248;-6.134;2023-05-07T10:14:05;19.90;74.70
38684;DHT22;24910;53.248;-6.134;2023-05-07T10:16:36;19.90;74.60
38684;DHT22;24910;53.248;-6.134;2023-05-07T10:19:10;19.90;74.30
38684;DHT22;24910;53.248;-6.134;2023-05-07T10:21:48;20.00;73.80
38684;DHT22;24910;53.248;-6.134;2023-05-07T10:24:21;19.90;73.10
38684;DHT22;24910;53.248;-6.134;2023-05-07T10:26:55;19.80;72.90
38684;DHT22;24910;53.248;-6.134;2023-05-07T10:29:29;19.80;73.20
38684;DHT22;24910;53.248;-6.134;2023-05-07T10:32:16;19.90;73.50
38684;DHT22;24910;53.248;-6.134;2023-05-07T10:34:50;20.10;73.50
38684;DHT22;24910;53.248;-6.134;2023-05-07T10:37:22;20.10;73.20
38684;DHT22;24910;53.248;-6.134;2023-05-07T10:39:52;20.00;72.80
38684;DHT22;24910;53.248;-6.134;2023-05-07T10:42:22;19.80;73.00
38684;DHT22;24910;53.248;-6.134;2023-05-07T10:44:55;19.80;73.20
38684;DHT22;24910;53.248;-6.134;2023-05-07T10:47:28;19.80;73.20
38684;DHT22;24910;53.248;-6.134;2023-05-07T10:50:22;19.70;73.00
38684;DHT22;24910;53.248;-6.134;2023-05-07T10:53:22;19.60;72.70
38684;DHT22;24910;53.248;-6.134;2023-05-07T10:56:32;19.50;73.30
38684;DHT22;24910;53.248;-6.134;2023-05-07T10:59:35;19.30;73.80
38684;DHT22;24910;53.248;-6.134;2023-05-07T11:05:45;19.00;75.30
38684;DHT22;24910;53.248;-6.134;2023-05-07T11:08:25;19.00;75.90
38684;DHT22;24910;53.248;-6.134;2023-05-07T11:11:00;19.00;76.40
38684;DHT22;24910;53.248;-6.134;2023-05-07T11:13:52;19.00;76.40
38684;DHT22;24910;53.248;-6.134;2023-05-07T11:16:28;19.10;76.40
38684;DHT22;24910;53.248;-6.134;2023-05-07T11:22:41;19.30;75.90
38684;DHT22;24910;53.248;-6.134;2023-05-07T11:25:22;19.40;75.90
38684;DHT22;24910;53.248;-6.134;2023-05-07T11:28:18;19.50;75.70
38684;DHT22;24910;53.248;-6.134;2023-05-07T11:30:58;19.60;75.30
38684;DHT22;24910;53.248;-6.134;2023-05-07T11:33:30;19.60;75.00
38684;DHT22;24910;53.248;-6.134;2023-05-07T11:36:03;19.70;74.50
38684;DHT22;24910;53.248;-6.134;2023-05-07T11:38:38;19.70;74.40
38684;DHT22;24910;53.248;-6.134;2023-05-07T11:41:08;19.80;74.10
38684;DHT22;24910;53.248;-6.134;2023-05-07T11:43:37;19.90;73.90
38684;DHT22;24910;53.248;-6.134;2023-05-07T11:46:09;20.00;73.50
38684;DHT22;24910;53.248;-6.134;2023-05-07T11:48:39;20.10;73.00
38684;DHT22;24910;53.248;-6.134;2023-05-07T11:51:09;20.10;72.80
38684;DHT22;24910;53.248;-6.134;2023-05-07T11:53:41;20.00;72.90
38684;DHT22;24910;53.248;-6.134;2023-05-07T11:56:18;20.10;73.50
38684;DHT22;24910;53.248;-6.134;2023-05-07T11:58:48;20.20;73.80
38684;DHT22;24910;53.248;-6.134;2023-05-07T12:01:19;20.20;73.90
38684;DHT22;24910;53.248;-6.134;2023-05-07T12:03:48;20.30;74.10
38684;DHT22;24910;53.248;-6.134;2023-05-07T12:06:18;20.30;74.30
38684;DHT22;24910;53.248;-6.134;2023-05-07T12:08:48;20.30;74.40
38684;DHT22;24910;53.248;-6.134;2023-05-07T12:11:23;20.50;74.50
38684;DHT22;24910;53.248;-6.134;2023-05-07T12:13:54;20.60;74.30
38684;DHT22;24910;53.248;-6.134;2023-05-07T12:16:27;20.70;74.00
38684;DHT22;24910;53.248;-6.134;2023-05-07T12:18:56;20.60;73.70
38684;DHT22;24910;53.248;-6.134;2023-05-07T12:21:26;20.60;73.50
38684;DHT22;24910;53.248;-6.134;2023-05-07T12:23:57;20.50;73.50
38684;DHT22;24910;53.248;-6.134;2023-05-07T12:26:26;20.50;73.60
38684;DHT22;24910;53.248;-6.134;2023-05-07T12:28:57;20.50;73.60
38684;DHT22;24910;53.248;-6.134;2023-05-07T12:31:26;20.40;73.30
38684;DHT22;24910;53.248;-6.134;2023-05-07T12:33:55;20.30;73.40
38684;DHT22;24910;53.248;-6.134;2023-05-07T12:36:24;20.20;73.50
38684;DHT22;24910;53.248;-6.134;2023-05-07T12:38:54;20.10;73.80
38684;DHT22;24910;53.248;-6.134;2023-05-07T12:41:25;20.00;75.00
38684;DHT22;24910;53.248;-6.134;2023-05-07T12:43:57;20.00;74.40
38684;DHT22;24910;53.248;-6.134;2023-05-07T12:46:26;20.00;74.70
38684;DHT22;24910;53.248;-6.134;2023-05-07T12:48:55;20.20;74.30
38684;DHT22;24910;53.248;-6.134;2023-05-07T12:51:24;20.40;73.20
38684;DHT22;24910;53.248;-6.134;2023-05-07T12:53:56;20.60;71.80
38684;DHT22;24910;53.248;-6.134;2023-05-07T12:56:26;20.80;71.30
38684;DHT22;24910;53.248;-6.134;2023-05-07T12:58:57;20.90;70.80
38684;DHT22;24910;53.248;-6.134;2023-05-07T13:01:29;20.80;70.60
38684;DHT22;24910;53.248;-6.134;2023-05-07T13:04:01;20.70;70.80
38684;DHT22;24910;53.248;-6.134;2023-05-07T13:06:31;20.60;70.90
38684;DHT22;24910;53.248;-6.134;2023-05-07T13:09:00;20.50;71.20
38684;DHT22;24910;53.248;-6.134;2023-05-07T13:11:31;20.40;71.40
38684;DHT22;24910;53.248;-6.134;2023-05-07T13:14:00;20.30;71.60
38684;DHT22;24910;53.248;-6.134;2023-05-07T13:16:29;20.30;72.10
38684;DHT22;24910;53.248;-6.134;2023-05-07T13:18:58;20.30;72.50
38684;DHT22;24910;53.248;-6.134;2023-05-07T13:21:27;20.30;72.40
38684;DHT22;24910;53.248;-6.134;2023-05-07T13:23:58;20.30;71.30
38684;DHT22;24910;53.248;-6.134;2023-05-07T13:26:27;20.40;70.60
38684;DHT22;24910;53.248;-6.134;2023-05-07T13:28:57;20.40;70.30
38684;DHT22;24910;53.248;-6.134;2023-05-07T13:31:27;20.50;69.80
38684;DHT22;24910;53.248;-6.134;2023-05-07T13:33:56;20.50;69.60
38684;DHT22;24910;53.248;-6.134;2023-05-07T13:36:25;20.50;69.30
38684;DHT22;24910;53.248;-6.134;2023-05-07T13:38:54;20.50;68.70
38684;DHT22;24910;53.248;-6.134;2023-05-07T13:41:23;20.50;68.60
38684;DHT22;24910;53.248;-6.134;2023-05-07T13:43:52;20.50;68.70
38684;DHT22;24910;53.248;-6.134;2023-05-07T13:46:23;20.50;68.80
38684;DHT22;24910;53.248;-6.134;2023-05-07T13:48:52;20.50;68.70
38684;DHT22;24910;53.248;-6.134;2023-05-07T13:51:21;20.50;68.60
38684;DHT22;24910;53.248;-6.134;2023-05-07T13:53:50;20.50;68.40
38684;DHT22;24910;53.248;-6.134;2023-05-07T13:56:20;20.60;68.40
38684;DHT22;24910;53.248;-6.134;2023-05-07T13:58:49;20.60;68.20
38684;DHT22;24910;53.248;-6.134;2023-05-07T14:01:28;20.70;67.80
38684;DHT22;24910;53.248;-6.134;2023-05-07T14:03:57;20.70;67.40
38684;DHT22;24910;53.248;-6.134;2023-05-07T14:06:27;20.70;67.00
38684;DHT22;24910;53.248;-6.134;2023-05-07T14:08:56;20.70;67.00
38684;DHT22;24910;53.248;-6.134;2023-05-07T14:11:25;20.70;66.60
38684;DHT22;24910;53.248;-6.134;2023-05-07T14:13:55;20.80;66.60
38684;DHT22;24910;53.248;-6.134;2023-05-07T14:16:24;20.80;66.60
38684;DHT22;24910;53.248;-6.134;2023-05-07T14:18:55;20.80;66.50
38684;DHT22;24910;53.248;-6.134;2023-05-07T14:21:25;20.80;66.50
38684;DHT22;24910;53.248;-6.134;2023-05-07T14:23:54;20.80;66.60
38684;DHT22;24910;53.248;-6.134;2023-05-07T14:26:24;20.80;66.70
38684;DHT22;24910;53.248;-6.134;2023-05-07T14:28:54;20.80;66.70
38684;DHT22;24910;53.248;-6.134;2023-05-07T14:31:26;20.70;66.20
38684;DHT22;24910;53.248;-6.134;2023-05-07T14:33:56;20.60;66.40
38684;DHT22;24910;53.248;-6.134;2023-05-07T14:36:26;20.40;67.40
38684;DHT22;24910;53.248;-6.134;2023-05-07T14:38:55;20.20;68.00
38684;DHT22;24910;53.248;-6.134;2023-05-07T14:41:30;20.00;68.60
38684;DHT22;24910;53.248;-6.134;2023-05-07T14:44:00;19.90;69.50
38684;DHT22;24910;53.248;-6.134;2023-05-07T14:46:31;19.80;70.10
38684;DHT22;24910;53.248;-6.134;2023-05-07T14:49:05;19.70;70.70
38684;DHT22;24910;53.248;-6.134;2023-05-07T14:51:34;19.60;72.20
38684;DHT22;24910;53.248;-6.134;2023-05-07T14:54:03;19.70;71.90
38684;DHT22;24910;53.248;-6.134;2023-05-07T14:56:32;19.50;72.40
38684;DHT22;24910;53.248;-6.134;2023-05-07T14:59:02;19.40;72.90
38684;DHT22;24910;53.248;-6.134;2023-05-07T15:01:31;19.40;73.20
38684;DHT22;24910;53.248;-6.134;2023-05-07T15:04:03;19.20;73.60
38684;DHT22;24910;53.248;-6.134;2023-05-07T15:06:32;19.10;74.10
38684;DHT22;24910;53.248;-6.134;2023-05-07T15:09:01;19.00;74.50
38684;DHT22;24910;53.248;-6.134;2023-05-07T15:11:31;19.00;74.90
38684;DHT22;24910;53.248;-6.134;2023-05-07T15:14:00;19.00;75.10
38684;DHT22;24910;53.248;-6.134;2023-05-07T15:16:29;18.90;75.40
38684;DHT22;24910;53.248;-6.134;2023-05-07T15:18:59;18.80;75.80
38684;DHT22;24910;53.248;-6.134;2023-05-07T15:21:29;18.70;76.10
38684;DHT22;24910;53.248;-6.134;2023-05-07T15:24:02;18.70;76.40
38684;DHT22;24910;53.248;-6.134;2023-05-07T15:26:33;18.60;76.70
38684;DHT22;24910;53.248;-6.134;2023-05-07T15:29:03;18.60;77.00
38684;DHT22;24910;53.248;-6.134;2023-05-07T15:31:38;18.50;77.10
38684;DHT22;24910;53.248;-6.134;2023-05-07T15:34:07;18.40;77.20
38684;DHT22;24910;53.248;-6.134;2023-05-07T15:36:37;18.30;77.20
38684;DHT22;24910;53.248;-6.134;2023-05-07T15:39:07;18.30;77.30
38684;DHT22;24910;53.248;-6.134;2023-05-07T15:41:36;18.30;77.30
38684;DHT22;24910;53.248;-6.134;2023-05-07T15:44:05;18.20;77.10
38684;DHT22;24910;53.248;-6.134;2023-05-07T15:46:34;18.20;76.80